Huvudsida
METAR-TAF:

METAR-TAF

Flygplatser :

Utti Airport

Uttis, Finland

latitud: 60-54N, longitud: 026-56E, höjd: 100 m

Aktuellt väderrapport

Denna rapport gjordes för 14 minuter sedan, klockan 22:50 UTC
Vind 5 kt från nord, varierande mellan nord/nordväst och nord/nordost
Temperatur -6°C
Fuktighet 86%
Tryck 1011 hPa
Sikt 10 km eller mer
Spridda moln på en höjd av 800 ft
Brutna moln på en höjd av 7000 ft

METAR: EFUT 232250Z AUTO 36005KT 330V030 9999 SCT008 BKN070 M06/M08 Q1011

Tid: 01:04 (23:04 UTC)

Väderprognos

Denna rapport gjordes för 5 timmar och 39 minuter sedan, klockan 17:25 UTC
Prognos gäller från 23 kl. 18 UTC till 23 kl. 21 UTC
Vind 4 kt från nord/nordväst
Sikt: 5000 m
Brutna moln på en höjd av 1500 ft
lätt snö
Temporärt
från 23 kl. 18 UTC till 23 kl. 21 UTC
Sikt: 2000 m
Brutna moln på en höjd av 600 ft
lätt snö

TAF: EFUT 231725Z 2318/2321 34004KT 5000 -SN BKN015 TEMPO 2318/2321 2000 -SN BKN006

Aktuella väderrapporter och prognoser från 4000 flygplatser (METAR- och TAF-rapporter).

De tillgängliga stationerna syns som gula och röda prickar på kartan.

För musen över prickarna för att se namnen på stationerna.

Klicka sedan för att få väderrapporter och prognoser.

För att ändra kartan: Klicka på de gröna knapparna med ett svart kors på för att zooma in; den gröna knappen med ett streck på för att zooma ut; eller på de gröna pilarna för angränsande kartor.


METAR-TAF: